sensor_id;sensor_type;location;lat;lon;timestamp;P1;durP1;ratioP1;P2;durP2;ratioP2
82030;SDS011;71592;52.178;4.512;2023-10-13T00:01:05;7.55;;;3.33;;
82030;SDS011;71592;52.178;4.512;2023-10-13T00:03:32;7.53;;;2.95;;
82030;SDS011;71592;52.178;4.512;2023-10-13T00:05:58;7.53;;;2.80;;
82030;SDS011;71592;52.178;4.512;2023-10-13T00:08:28;6.25;;;2.90;;
82030;SDS011;71592;52.178;4.512;2023-10-13T00:10:54;8.55;;;3.55;;
82030;SDS011;71592;52.178;4.512;2023-10-13T00:13:25;9.90;;;3.35;;
82030;SDS011;71592;52.178;4.512;2023-10-13T00:15:51;7.95;;;3.53;;
82030;SDS011;71592;52.178;4.512;2023-10-13T00:18:30;6.60;;;3.40;;
82030;SDS011;71592;52.178;4.512;2023-10-13T00:20:59;7.22;;;2.88;;
82030;SDS011;71592;52.178;4.512;2023-10-13T00:23:24;7.70;;;2.90;;
82030;SDS011;71592;52.178;4.512;2023-10-13T00:25:52;8.55;;;2.80;;
82030;SDS011;71592;52.178;4.512;2023-10-13T00:28:25;7.78;;;2.92;;
82030;SDS011;71592;52.178;4.512;2023-10-13T00:30:51;6.40;;;3.00;;
82030;SDS011;71592;52.178;4.512;2023-10-13T00:33:18;8.43;;;2.88;;
82030;SDS011;71592;52.178;4.512;2023-10-13T00:35:47;9.07;;;3.42;;
82030;SDS011;71592;52.178;4.512;2023-10-13T00:38:16;7.38;;;3.30;;
82030;SDS011;71592;52.178;4.512;2023-10-13T00:40:42;9.02;;;3.53;;
82030;SDS011;71592;52.178;4.512;2023-10-13T00:43:09;5.78;;;3.17;;
82030;SDS011;71592;52.178;4.512;2023-10-13T00:45:43;7.20;;;3.72;;
82030;SDS011;71592;52.178;4.512;2023-10-13T00:48:09;7.22;;;3.90;;
82030;SDS011;71592;52.178;4.512;2023-10-13T00:50:39;7.13;;;3.33;;
82030;SDS011;71592;52.178;4.512;2023-10-13T00:53:05;8.50;;;3.20;;
82030;SDS011;71592;52.178;4.512;2023-10-13T00:55:32;5.50;;;3.20;;
82030;SDS011;71592;52.178;4.512;2023-10-13T00:57:59;7.65;;;3.38;;
82030;SDS011;71592;52.178;4.512;2023-10-13T01:00:30;8.50;;;2.63;;
82030;SDS011;71592;52.178;4.512;2023-10-13T01:02:56;5.20;;;3.10;;
82030;SDS011;71592;52.178;4.512;2023-10-13T01:05:25;7.33;;;3.03;;
82030;SDS011;71592;52.178;4.512;2023-10-13T01:07:51;5.75;;;3.47;;
82030;SDS011;71592;52.178;4.512;2023-10-13T01:10:20;7.13;;;3.58;;
82030;SDS011;71592;52.178;4.512;2023-10-13T01:12:46;6.18;;;3.70;;
82030;SDS011;71592;52.178;4.512;2023-10-13T01:15:12;6.07;;;3.72;;
82030;SDS011;71592;52.178;4.512;2023-10-13T01:17:42;8.07;;;5.00;;
82030;SDS011;71592;52.178;4.512;2023-10-13T01:20:10;11.20;;;6.20;;
82030;SDS011;71592;52.178;4.512;2023-10-13T01:22:37;9.50;;;4.90;;
82030;SDS011;71592;52.178;4.512;2023-10-13T01:25:03;8.23;;;5.90;;
82030;SDS011;71592;52.178;4.512;2023-10-13T01:27:35;9.73;;;6.65;;
82030;SDS011;71592;52.178;4.512;2023-10-13T01:30:03;13.25;;;6.70;;
82030;SDS011;71592;52.178;4.512;2023-10-13T01:32:38;12.18;;;8.13;;
82030;SDS011;71592;52.178;4.512;2023-10-13T01:35:06;14.45;;;8.20;;
82030;SDS011;71592;52.178;4.512;2023-10-13T01:37:31;15.35;;;9.27;;
82030;SDS011;71592;52.178;4.512;2023-10-13T01:40:03;15.93;;;9.30;;
82030;SDS011;71592;52.178;4.512;2023-10-13T01:42:29;15.35;;;9.30;;
82030;SDS011;71592;52.178;4.512;2023-10-13T01:44:55;15.48;;;9.65;;
82030;SDS011;71592;52.178;4.512;2023-10-13T01:47:23;15.73;;;9.70;;
82030;SDS011;71592;52.178;4.512;2023-10-13T01:49:49;17.60;;;9.73;;
82030;SDS011;71592;52.178;4.512;2023-10-13T01:52:15;17.73;;;10.52;;
82030;SDS011;71592;52.178;4.512;2023-10-13T01:54:43;17.63;;;10.65;;
82030;SDS011;71592;52.178;4.512;2023-10-13T01:57:12;13.77;;;9.40;;
82030;SDS011;71592;52.178;4.512;2023-10-13T01:59:45;12.57;;;8.68;;
82030;SDS011;71592;52.178;4.512;2023-10-13T02:02:10;13.45;;;8.45;;
82030;SDS011;71592;52.178;4.512;2023-10-13T02:04:39;14.00;;;8.88;;
82030;SDS011;71592;52.178;4.512;2023-10-13T02:07:17;14.75;;;9.13;;
82030;SDS011;71592;52.178;4.512;2023-10-13T02:09:42;16.75;;;8.27;;
82030;SDS011;71592;52.178;4.512;2023-10-13T02:12:08;16.83;;;8.43;;
82030;SDS011;71592;52.178;4.512;2023-10-13T02:14:34;11.95;;;7.85;;
82030;SDS011;71592;52.178;4.512;2023-10-13T02:17:02;16.50;;;8.95;;
82030;SDS011;71592;52.178;4.512;2023-10-13T02:19:42;13.10;;;7.93;;
82030;SDS011;71592;52.178;4.512;2023-10-13T02:22:13;14.18;;;8.48;;
82030;SDS011;71592;52.178;4.512;2023-10-13T02:24:52;12.90;;;7.43;;
82030;SDS011;71592;52.178;4.512;2023-10-13T02:27:17;12.45;;;7.47;;
82030;SDS011;71592;52.178;4.512;2023-10-13T02:29:49;15.38;;;8.32;;
82030;SDS011;71592;52.178;4.512;2023-10-13T02:32:14;13.23;;;7.22;;
82030;SDS011;71592;52.178;4.512;2023-10-13T02:37:11;13.17;;;7.50;;
82030;SDS011;71592;52.178;4.512;2023-10-13T02:39:37;12.38;;;7.45;;
82030;SDS011;71592;52.178;4.512;2023-10-13T02:42:06;14.60;;;8.35;;
82030;SDS011;71592;52.178;4.512;2023-10-13T02:44:32;12.80;;;8.55;;
82030;SDS011;71592;52.178;4.512;2023-10-13T02:46:58;14.27;;;8.52;;
82030;SDS011;71592;52.178;4.512;2023-10-13T02:49:27;14.25;;;7.43;;
82030;SDS011;71592;52.178;4.512;2023-10-13T02:51:56;16.40;;;8.40;;
82030;SDS011;71592;52.178;4.512;2023-10-13T02:54:21;10.75;;;6.97;;
82030;SDS011;71592;52.178;4.512;2023-10-13T02:56:47;13.13;;;8.70;;
82030;SDS011;71592;52.178;4.512;2023-10-13T02:59:25;19.27;;;9.63;;
82030;SDS011;71592;52.178;4.512;2023-10-13T03:02:02;12.32;;;9.05;;
82030;SDS011;71592;52.178;4.512;2023-10-13T03:04:40;13.82;;;9.02;;
82030;SDS011;71592;52.178;4.512;2023-10-13T03:07:05;13.80;;;8.87;;
82030;SDS011;71592;52.178;4.512;2023-10-13T03:09:31;13.27;;;9.20;;
82030;SDS011;71592;52.178;4.512;2023-10-13T03:12:02;16.25;;;8.52;;
82030;SDS011;71592;52.178;4.512;2023-10-13T03:14:28;14.70;;;8.68;;
82030;SDS011;71592;52.178;4.512;2023-10-13T03:16:58;15.25;;;9.80;;
82030;SDS011;71592;52.178;4.512;2023-10-13T03:19:44;14.80;;;8.95;;
82030;SDS011;71592;52.178;4.512;2023-10-13T03:22:15;14.43;;;8.50;;
82030;SDS011;71592;52.178;4.512;2023-10-13T03:24:41;14.35;;;8.75;;
82030;SDS011;71592;52.178;4.512;2023-10-13T03:27:17;13.13;;;8.30;;
82030;SDS011;71592;52.178;4.512;2023-10-13T03:29:47;12.77;;;8.70;;
82030;SDS011;71592;52.178;4.512;2023-10-13T03:32:14;13.18;;;8.75;;
82030;SDS011;71592;52.178;4.512;2023-10-13T03:34:43;13.18;;;7.95;;
82030;SDS011;71592;52.178;4.512;2023-10-13T03:37:19;12.38;;;8.63;;
82030;SDS011;71592;52.178;4.512;2023-10-13T03:40:06;13.73;;;8.68;;
82030;SDS011;71592;52.178;4.512;2023-10-13T03:42:55;14.73;;;9.18;;
82030;SDS011;71592;52.178;4.512;2023-10-13T03:45:24;13.88;;;9.05;;
82030;SDS011;71592;52.178;4.512;2023-10-13T03:47:50;15.18;;;8.77;;
82030;SDS011;71592;52.178;4.512;2023-10-13T03:50:17;15.05;;;9.43;;
82030;SDS011;71592;52.178;4.512;2023-10-13T03:52:47;13.45;;;9.25;;
82030;SDS011;71592;52.178;4.512;2023-10-13T03:55:13;15.05;;;8.73;;
82030;SDS011;71592;52.178;4.512;2023-10-13T03:57:42;13.27;;;7.97;;
82030;SDS011;71592;52.178;4.512;2023-10-13T04:00:08;10.10;;;7.32;;
82030;SDS011;71592;52.178;4.512;2023-10-13T04:02:34;10.20;;;7.45;;
82030;SDS011;71592;52.178;4.512;2023-10-13T04:05:01;8.38;;;5.70;;
82030;SDS011;71592;52.178;4.512;2023-10-13T04:07:34;10.70;;;6.07;;
82030;SDS011;71592;52.178;4.512;2023-10-13T04:10:25;8.73;;;5.22;;
82030;SDS011;71592;52.178;4.512;2023-10-13T04:13:09;10.63;;;5.32;;
82030;SDS011;71592;52.178;4.512;2023-10-13T04:15:38;7.57;;;5.40;;
82030;SDS011;71592;52.178;4.512;2023-10-13T04:18:08;9.23;;;6.25;;
82030;SDS011;71592;52.178;4.512;2023-10-13T04:20:55;8.82;;;5.53;;
82030;SDS011;71592;52.178;4.512;2023-10-13T04:26:18;7.68;;;5.35;;
82030;SDS011;71592;52.178;4.512;2023-10-13T04:28:46;8.48;;;5.57;;
82030;SDS011;71592;52.178;4.512;2023-10-13T04:31:21;8.90;;;6.15;;
82030;SDS011;71592;52.178;4.512;2023-10-13T04:34:10;11.57;;;7.15;;
82030;SDS011;71592;52.178;4.512;2023-10-13T04:36:44;9.32;;;6.88;;
82030;SDS011;71592;52.178;4.512;2023-10-13T04:39:20;8.38;;;6.60;;
82030;SDS011;71592;52.178;4.512;2023-10-13T04:41:54;9.63;;;6.88;;
82030;SDS011;71592;52.178;4.512;2023-10-13T04:44:19;7.67;;;6.13;;
82030;SDS011;71592;52.178;4.512;2023-10-13T04:49:34;7.85;;;5.22;;
82030;SDS011;71592;52.178;4.512;2023-10-13T04:52:00;9.73;;;5.10;;
82030;SDS011;71592;52.178;4.512;2023-10-13T04:54:37;10.25;;;5.18;;
82030;SDS011;71592;52.178;4.512;2023-10-13T05:00:05;7.53;;;3.90;;
82030;SDS011;71592;52.178;4.512;2023-10-13T05:02:37;7.70;;;4.57;;
82030;SDS011;71592;52.178;4.512;2023-10-13T05:05:09;7.45;;;4.47;;
82030;SDS011;71592;52.178;4.512;2023-10-13T05:08:07;6.75;;;4.80;;
82030;SDS011;71592;52.178;4.512;2023-10-13T05:10:51;6.90;;;4.18;;
82030;SDS011;71592;52.178;4.512;2023-10-13T05:13:35;6.95;;;4.18;;
82030;SDS011;71592;52.178;4.512;2023-10-13T05:16:18;8.23;;;4.20;;
82030;SDS011;71592;52.178;4.512;2023-10-13T05:19:02;7.13;;;4.30;;
82030;SDS011;71592;52.178;4.512;2023-10-13T05:21:46;8.40;;;4.03;;
82030;SDS011;71592;52.178;4.512;2023-10-13T05:24:50;9.27;;;4.50;;
82030;SDS011;71592;52.178;4.512;2023-10-13T05:30:18;6.10;;;3.58;;
82030;SDS011;71592;52.178;4.512;2023-10-13T05:33:01;8.57;;;4.43;;
82030;SDS011;71592;52.178;4.512;2023-10-13T05:35:45;9.23;;;5.07;;
82030;SDS011;71592;52.178;4.512;2023-10-13T05:38:29;8.15;;;4.43;;
82030;SDS011;71592;52.178;4.512;2023-10-13T05:41:13;10.40;;;4.45;;
82030;SDS011;71592;52.178;4.512;2023-10-13T05:43:57;7.10;;;3.83;;
82030;SDS011;71592;52.178;4.512;2023-10-13T05:46:41;8.77;;;4.35;;
82030;SDS011;71592;52.178;4.512;2023-10-13T05:49:39;10.13;;;4.10;;
82030;SDS011;71592;52.178;4.512;2023-10-13T05:52:28;10.52;;;4.38;;
82030;SDS011;71592;52.178;4.512;2023-10-13T05:55:12;10.75;;;4.78;;
82030;SDS011;71592;52.178;4.512;2023-10-13T05:57:56;10.45;;;4.00;;
82030;SDS011;71592;52.178;4.512;2023-10-13T06:00:41;9.65;;;3.75;;
82030;SDS011;71592;52.178;4.512;2023-10-13T06:03:25;11.32;;;4.63;;
82030;SDS011;71592;52.178;4.512;2023-10-13T06:06:09;7.00;;;3.92;;
82030;SDS011;71592;52.178;4.512;2023-10-13T06:08:52;9.05;;;4.15;;
82030;SDS011;71592;52.178;4.512;2023-10-13T06:11:36;7.93;;;4.22;;
82030;SDS011;71592;52.178;4.512;2023-10-13T06:14:20;12.02;;;4.63;;
82030;SDS011;71592;52.178;4.512;2023-10-13T06:17:04;9.80;;;4.30;;
82030;SDS011;71592;52.178;4.512;2023-10-13T06:19:48;8.30;;;4.40;;
82030;SDS011;71592;52.178;4.512;2023-10-13T06:22:32;10.25;;;4.45;;
82030;SDS011;71592;52.178;4.512;2023-10-13T06:25:16;10.75;;;4.25;;
82030;SDS011;71592;52.178;4.512;2023-10-13T06:28:00;10.85;;;4.00;;
82030;SDS011;71592;52.178;4.512;2023-10-13T06:30:53;7.43;;;4.13;;
82030;SDS011;71592;52.178;4.512;2023-10-13T06:33:21;8.88;;;4.03;;
82030;SDS011;71592;52.178;4.512;2023-10-13T06:35:50;8.68;;;4.20;;
82030;SDS011;71592;52.178;4.512;2023-10-13T06:38:15;9.32;;;4.25;;
82030;SDS011;71592;52.178;4.512;2023-10-13T06:40:46;8.77;;;5.35;;
82030;SDS011;71592;52.178;4.512;2023-10-13T06:43:13;8.95;;;4.70;;
82030;SDS011;71592;52.178;4.512;2023-10-13T06:45:45;10.18;;;5.40;;
82030;SDS011;71592;52.178;4.512;2023-10-13T06:48:30;8.48;;;5.50;;
82030;SDS011;71592;52.178;4.512;2023-10-13T06:50:58;11.55;;;5.38;;
82030;SDS011;71592;52.178;4.512;2023-10-13T06:53:29;10.07;;;6.10;;
82030;SDS011;71592;52.178;4.512;2023-10-13T06:55:54;12.93;;;7.15;;
82030;SDS011;71592;52.178;4.512;2023-10-13T06:58:23;16.92;;;7.90;;
82030;SDS011;71592;52.178;4.512;2023-10-13T07:00:49;14.32;;;8.82;;
82030;SDS011;71592;52.178;4.512;2023-10-13T07:03:23;11.48;;;8.35;;
82030;SDS011;71592;52.178;4.512;2023-10-13T07:05:50;12.68;;;8.70;;
82030;SDS011;71592;52.178;4.512;2023-10-13T07:08:16;13.77;;;9.95;;
82030;SDS011;71592;52.178;4.512;2023-10-13T07:10:49;13.45;;;9.85;;
82030;SDS011;71592;52.178;4.512;2023-10-13T07:13:17;12.40;;;9.02;;
82030;SDS011;71592;52.178;4.512;2023-10-13T07:15:44;12.30;;;8.75;;
82030;SDS011;71592;52.178;4.512;2023-10-13T07:18:10;16.55;;;8.85;;
82030;SDS011;71592;52.178;4.512;2023-10-13T07:20:38;12.00;;;7.50;;
82030;SDS011;71592;52.178;4.512;2023-10-13T07:23:08;13.95;;;8.35;;
82030;SDS011;71592;52.178;4.512;2023-10-13T07:25:37;13.27;;;8.32;;
82030;SDS011;71592;52.178;4.512;2023-10-13T07:28:03;9.48;;;6.88;;
82030;SDS011;71592;52.178;4.512;2023-10-13T07:30:34;9.70;;;6.10;;
82030;SDS011;71592;52.178;4.512;2023-10-13T07:33:35;9.52;;;6.55;;
82030;SDS011;71592;52.178;4.512;2023-10-13T07:36:04;9.63;;;6.57;;
82030;SDS011;71592;52.178;4.512;2023-10-13T07:38:36;9.00;;;5.70;;
82030;SDS011;71592;52.178;4.512;2023-10-13T07:41:03;12.15;;;6.15;;
82030;SDS011;71592;52.178;4.512;2023-10-13T07:43:34;10.82;;;5.53;;
82030;SDS011;71592;52.178;4.512;2023-10-13T07:45:59;11.27;;;5.85;;
82030;SDS011;71592;52.178;4.512;2023-10-13T07:48:24;10.98;;;5.95;;
82030;SDS011;71592;52.178;4.512;2023-10-13T07:51:00;10.30;;;5.90;;
82030;SDS011;71592;52.178;4.512;2023-10-13T07:53:31;9.02;;;5.05;;
82030;SDS011;71592;52.178;4.512;2023-10-13T07:56:00;7.45;;;5.03;;
82030;SDS011;71592;52.178;4.512;2023-10-13T07:58:33;10.40;;;5.43;;
82030;SDS011;71592;52.178;4.512;2023-10-13T08:00:59;9.65;;;5.15;;
82030;SDS011;71592;52.178;4.512;2023-10-13T08:03:24;8.50;;;4.78;;
82030;SDS011;71592;52.178;4.512;2023-10-13T08:06:22;10.80;;;5.55;;
82030;SDS011;71592;52.178;4.512;2023-10-13T08:11:20;9.20;;;4.90;;
82030;SDS011;71592;52.178;4.512;2023-10-13T08:14:06;12.35;;;5.95;;
82030;SDS011;71592;52.178;4.512;2023-10-13T08:17:01;13.20;;;5.15;;
82030;SDS011;71592;52.178;4.512;2023-10-13T08:19:28;8.20;;;4.70;;
82030;SDS011;71592;52.178;4.512;2023-10-13T08:21:58;9.23;;;4.65;;
82030;SDS011;71592;52.178;4.512;2023-10-13T08:24:25;8.90;;;4.65;;
82030;SDS011;71592;52.178;4.512;2023-10-13T08:27:02;8.00;;;4.90;;
82030;SDS011;71592;52.178;4.512;2023-10-13T08:29:39;10.75;;;5.30;;
82030;SDS011;71592;52.178;4.512;2023-10-13T08:32:29;11.95;;;5.20;;
82030;SDS011;71592;52.178;4.512;2023-10-13T08:34:55;11.50;;;5.20;;
82030;SDS011;71592;52.178;4.512;2023-10-13T08:37:21;13.30;;;5.05;;
82030;SDS011;71592;52.178;4.512;2023-10-13T08:39:46;10.90;;;5.18;;
82030;SDS011;71592;52.178;4.512;2023-10-13T08:42:43;11.50;;;5.00;;
82030;SDS011;71592;52.178;4.512;2023-10-13T08:45:10;8.25;;;5.40;;
82030;SDS011;71592;52.178;4.512;2023-10-13T08:50:47;9.70;;;4.72;;
82030;SDS011;71592;52.178;4.512;2023-10-13T08:55:51;9.07;;;4.78;;
82030;SDS011;71592;52.178;4.512;2023-10-13T08:58:29;10.68;;;4.38;;
82030;SDS011;71592;52.178;4.512;2023-10-13T09:01:14;8.05;;;4.07;;
82030;SDS011;71592;52.178;4.512;2023-10-13T09:03:59;8.98;;;5.20;;
82030;SDS011;71592;52.178;4.512;2023-10-13T09:06:50;10.00;;;5.55;;
82030;SDS011;71592;52.178;4.512;2023-10-13T09:09:25;10.43;;;4.63;;
82030;SDS011;71592;52.178;4.512;2023-10-13T09:12:14;11.15;;;4.32;;
82030;SDS011;71592;52.178;4.512;2023-10-13T09:14:40;9.55;;;4.00;;
82030;SDS011;71592;52.178;4.512;2023-10-13T09:17:22;10.90;;;4.22;;
82030;SDS011;71592;52.178;4.512;2023-10-13T09:20:09;12.82;;;4.20;;
82030;SDS011;71592;52.178;4.512;2023-10-13T09:22:52;11.60;;;4.85;;
82030;SDS011;71592;52.178;4.512;2023-10-13T09:25:48;8.02;;;4.55;;
82030;SDS011;71592;52.178;4.512;2023-10-13T09:28:38;11.05;;;5.55;;
82030;SDS011;71592;52.178;4.512;2023-10-13T09:31:04;11.05;;;4.80;;
82030;SDS011;71592;52.178;4.512;2023-10-13T09:33:35;10.45;;;4.70;;
82030;SDS011;71592;52.178;4.512;2023-10-13T09:36:04;8.95;;;4.60;;
82030;SDS011;71592;52.178;4.512;2023-10-13T09:38:32;12.38;;;4.72;;
82030;SDS011;71592;52.178;4.512;2023-10-13T09:40:57;14.40;;;5.15;;
82030;SDS011;71592;52.178;4.512;2023-10-13T09:43:26;12.18;;;4.47;;
82030;SDS011;71592;52.178;4.512;2023-10-13T09:45:58;8.55;;;4.68;;
82030;SDS011;71592;52.178;4.512;2023-10-13T09:48:40;9.88;;;4.53;;
82030;SDS011;71592;52.178;4.512;2023-10-13T09:51:14;11.00;;;4.50;;
82030;SDS011;71592;52.178;4.512;2023-10-13T09:53:46;12.23;;;4.25;;
82030;SDS011;71592;52.178;4.512;2023-10-13T09:56:20;10.70;;;5.15;;
82030;SDS011;71592;52.178;4.512;2023-10-13T09:58:53;8.85;;;5.05;;
82030;SDS011;71592;52.178;4.512;2023-10-13T10:01:23;8.85;;;4.45;;
82030;SDS011;71592;52.178;4.512;2023-10-13T10:04:06;11.75;;;4.70;;
82030;SDS011;71592;52.178;4.512;2023-10-13T10:06:37;9.52;;;4.60;;
82030;SDS011;71592;52.178;4.512;2023-10-13T10:09:14;10.27;;;4.53;;
82030;SDS011;71592;52.178;4.512;2023-10-13T10:11:52;11.82;;;4.82;;
82030;SDS011;71592;52.178;4.512;2023-10-13T10:17:05;8.43;;;4.10;;
82030;SDS011;71592;52.178;4.512;2023-10-13T10:22:12;13.75;;;4.50;;
82030;SDS011;71592;52.178;4.512;2023-10-13T10:24:43;11.15;;;4.63;;
82030;SDS011;71592;52.178;4.512;2023-10-13T10:27:09;8.65;;;5.05;;
82030;SDS011;71592;52.178;4.512;2023-10-13T10:29:39;7.63;;;3.85;;
82030;SDS011;71592;52.178;4.512;2023-10-13T10:32:13;8.77;;;4.55;;
82030;SDS011;71592;52.178;4.512;2023-10-13T10:34:38;7.70;;;4.32;;
82030;SDS011;71592;52.178;4.512;2023-10-13T10:37:04;9.90;;;4.77;;
82030;SDS011;71592;52.178;4.512;2023-10-13T10:39:34;10.45;;;4.85;;
82030;SDS011;71592;52.178;4.512;2023-10-13T10:42:13;10.38;;;4.88;;
82030;SDS011;71592;52.178;4.512;2023-10-13T10:44:40;8.65;;;4.32;;
82030;SDS011;71592;52.178;4.512;2023-10-13T10:47:11;8.00;;;5.00;;
82030;SDS011;71592;52.178;4.512;2023-10-13T10:49:44;11.32;;;4.85;;
82030;SDS011;71592;52.178;4.512;2023-10-13T10:52:10;10.63;;;4.50;;
82030;SDS011;71592;52.178;4.512;2023-10-13T10:54:43;10.18;;;4.95;;
82030;SDS011;71592;52.178;4.512;2023-10-13T10:57:09;8.52;;;4.80;;
82030;SDS011;71592;52.178;4.512;2023-10-13T10:59:42;11.88;;;5.10;;
82030;SDS011;71592;52.178;4.512;2023-10-13T11:02:08;10.90;;;5.45;;
82030;SDS011;71592;52.178;4.512;2023-10-13T11:04:34;10.30;;;5.30;;
82030;SDS011;71592;52.178;4.512;2023-10-13T11:07:05;8.50;;;5.07;;
82030;SDS011;71592;52.178;4.512;2023-10-13T11:09:32;8.20;;;5.80;;
82030;SDS011;71592;52.178;4.512;2023-10-13T11:12:24;11.82;;;5.03;;
82030;SDS011;71592;52.178;4.512;2023-10-13T11:15:04;15.25;;;5.47;;
82030;SDS011;71592;52.178;4.512;2023-10-13T11:17:50;12.10;;;5.32;;
82030;SDS011;71592;52.178;4.512;2023-10-13T11:20:20;11.27;;;5.25;;
82030;SDS011;71592;52.178;4.512;2023-10-13T11:23:10;7.75;;;4.72;;
82030;SDS011;71592;52.178;4.512;2023-10-13T11:25:36;13.07;;;5.20;;
82030;SDS011;71592;52.178;4.512;2023-10-13T11:28:15;11.68;;;5.22;;
82030;SDS011;71592;52.178;4.512;2023-10-13T11:33:18;9.17;;;5.83;;
82030;SDS011;71592;52.178;4.512;2023-10-13T11:38:23;10.13;;;5.13;;
82030;SDS011;71592;52.178;4.512;2023-10-13T11:43:29;10.98;;;5.30;;
82030;SDS011;71592;52.178;4.512;2023-10-13T11:45:56;10.30;;;5.95;;
82030;SDS011;71592;52.178;4.512;2023-10-13T11:48:34;9.40;;;4.95;;
82030;SDS011;71592;52.178;4.512;2023-10-13T11:51:01;10.82;;;4.95;;
82030;SDS011;71592;52.178;4.512;2023-10-13T11:53:32;9.98;;;4.82;;
82030;SDS011;71592;52.178;4.512;2023-10-13T11:55:57;11.40;;;5.10;;
82030;SDS011;71592;52.178;4.512;2023-10-13T11:58:23;13.85;;;5.30;;
82030;SDS011;71592;52.178;4.512;2023-10-13T12:00:49;11.73;;;6.07;;
82030;SDS011;71592;52.178;4.512;2023-10-13T12:03:19;13.05;;;5.47;;
82030;SDS011;71592;52.178;4.512;2023-10-13T12:06:03;13.02;;;5.72;;
82030;SDS011;71592;52.178;4.512;2023-10-13T12:08:44;11.68;;;4.93;;
82030;SDS011;71592;52.178;4.512;2023-10-13T12:11:19;10.20;;;5.20;;
82030;SDS011;71592;52.178;4.512;2023-10-13T12:13:56;11.68;;;4.93;;
82030;SDS011;71592;52.178;4.512;2023-10-13T12:16:22;15.40;;;5.55;;
82030;SDS011;71592;52.178;4.512;2023-10-13T12:18:47;10.02;;;5.45;;
82030;SDS011;71592;52.178;4.512;2023-10-13T12:21:19;11.65;;;5.60;;
82030;SDS011;71592;52.178;4.512;2023-10-13T12:23:46;10.85;;;5.35;;
82030;SDS011;71592;52.178;4.512;2023-10-13T12:26:11;14.27;;;5.22;;
82030;SDS011;71592;52.178;4.512;2023-10-13T12:28:44;12.77;;;5.47;;
82030;SDS011;71592;52.178;4.512;2023-10-13T12:31:16;12.60;;;5.30;;
82030;SDS011;71592;52.178;4.512;2023-10-13T12:33:42;14.45;;;6.55;;
82030;SDS011;71592;52.178;4.512;2023-10-13T12:36:08;14.10;;;6.22;;
82030;SDS011;71592;52.178;4.512;2023-10-13T12:41:16;12.85;;;6.82;;
82030;SDS011;71592;52.178;4.512;2023-10-13T12:44:00;8.93;;;5.43;;
82030;SDS011;71592;52.178;4.512;2023-10-13T12:46:45;10.60;;;5.05;;
82030;SDS011;71592;52.178;4.512;2023-10-13T12:49:29;14.23;;;5.72;;
82030;SDS011;71592;52.178;4.512;2023-10-13T12:52:06;11.38;;;4.93;;
82030;SDS011;71592;52.178;4.512;2023-10-13T12:54:44;10.80;;;4.90;;
82030;SDS011;71592;52.178;4.512;2023-10-13T12:57:26;12.27;;;5.80;;
82030;SDS011;71592;52.178;4.512;2023-10-13T12:59:52;12.35;;;5.82;;
82030;SDS011;71592;52.178;4.512;2023-10-13T13:02:21;12.45;;;5.53;;
82030;SDS011;71592;52.178;4.512;2023-10-13T13:04:47;12.38;;;5.80;;
82030;SDS011;71592;52.178;4.512;2023-10-13T13:07:19;16.65;;;6.32;;
82030;SDS011;71592;52.178;4.512;2023-10-13T13:09:44;13.27;;;6.32;;
82030;SDS011;71592;52.178;4.512;2023-10-13T13:12:09;17.20;;;5.40;;
82030;SDS011;71592;52.178;4.512;2023-10-13T13:14:37;9.10;;;5.03;;
82030;SDS011;71592;52.178;4.512;2023-10-13T13:17:05;10.40;;;6.13;;
82030;SDS011;71592;52.178;4.512;2023-10-13T13:19:31;11.32;;;5.35;;
82030;SDS011;71592;52.178;4.512;2023-10-13T13:21:59;8.68;;;4.72;;
82030;SDS011;71592;52.178;4.512;2023-10-13T13:24:25;13.17;;;5.47;;
82030;SDS011;71592;52.178;4.512;2023-10-13T13:26:55;10.07;;;4.90;;
82030;SDS011;71592;52.178;4.512;2023-10-13T13:29:20;12.52;;;6.50;;
82030;SDS011;71592;52.178;4.512;2023-10-13T13:31:45;13.38;;;5.72;;
82030;SDS011;71592;52.178;4.512;2023-10-13T13:34:11;9.93;;;5.65;;
82030;SDS011;71592;52.178;4.512;2023-10-13T13:36:39;13.45;;;5.45;;
82030;SDS011;71592;52.178;4.512;2023-10-13T13:39:09;12.95;;;5.30;;
82030;SDS011;71592;52.178;4.512;2023-10-13T13:41:34;12.73;;;4.95;;
82030;SDS011;71592;52.178;4.512;2023-10-13T13:44:00;13.40;;;6.40;;
82030;SDS011;71592;52.178;4.512;2023-10-13T13:46:40;11.45;;;4.82;;
82030;SDS011;71592;52.178;4.512;2023-10-13T13:49:06;14.38;;;4.55;;
82030;SDS011;71592;52.178;4.512;2023-10-13T13:51:33;16.38;;;5.50;;
82030;SDS011;71592;52.178;4.512;2023-10-13T13:53:59;11.73;;;4.90;;
82030;SDS011;71592;52.178;4.512;2023-10-13T13:56:31;10.27;;;4.80;;
82030;SDS011;71592;52.178;4.512;2023-10-13T13:59:03;11.40;;;5.53;;
82030;SDS011;71592;52.178;4.512;2023-10-13T14:01:33;9.85;;;5.85;;
82030;SDS011;71592;52.178;4.512;2023-10-13T14:04:01;12.15;;;5.63;;
82030;SDS011;71592;52.178;4.512;2023-10-13T14:06:31;15.35;;;5.95;;
82030;SDS011;71592;52.178;4.512;2023-10-13T14:08:58;11.38;;;4.70;;
82030;SDS011;71592;52.178;4.512;2023-10-13T14:12:05;13.90;;;5.18;;
82030;SDS011;71592;52.178;4.512;2023-10-13T14:15:03;10.85;;;4.82;;
82030;SDS011;71592;52.178;4.512;2023-10-13T14:17:28;14.23;;;5.30;;
82030;SDS011;71592;52.178;4.512;2023-10-13T14:20:00;18.90;;;6.05;;
82030;SDS011;71592;52.178;4.512;2023-10-13T14:22:33;13.15;;;5.60;;
82030;SDS011;71592;52.178;4.512;2023-10-13T14:25:05;11.88;;;4.95;;
82030;SDS011;71592;52.178;4.512;2023-10-13T14:27:34;13.30;;;6.38;;
82030;SDS011;71592;52.178;4.512;2023-10-13T14:30:01;13.75;;;6.00;;
82030;SDS011;71592;52.178;4.512;2023-10-13T14:32:27;12.43;;;4.80;;
82030;SDS011;71592;52.178;4.512;2023-10-13T14:34:53;11.23;;;4.88;;
82030;SDS011;71592;52.178;4.512;2023-10-13T14:37:22;17.05;;;5.30;;
82030;SDS011;71592;52.178;4.512;2023-10-13T14:39:57;12.65;;;4.32;;
82030;SDS011;71592;52.178;4.512;2023-10-13T14:42:25;17.10;;;5.07;;
82030;SDS011;71592;52.178;4.512;2023-10-13T14:44:51;11.07;;;5.35;;
82030;SDS011;71592;52.178;4.512;2023-10-13T14:47:26;11.98;;;5.07;;
82030;SDS011;71592;52.178;4.512;2023-10-13T14:49:55;15.98;;;4.93;;
82030;SDS011;71592;52.178;4.512;2023-10-13T14:52:21;13.35;;;4.75;;
82030;SDS011;71592;52.178;4.512;2023-10-13T14:54:47;15.13;;;5.40;;
82030;SDS011;71592;52.178;4.512;2023-10-13T14:57:15;14.27;;;4.50;;
82030;SDS011;71592;52.178;4.512;2023-10-13T14:59:40;10.43;;;4.40;;
82030;SDS011;71592;52.178;4.512;2023-10-13T15:02:06;10.75;;;3.83;;
82030;SDS011;71592;52.178;4.512;2023-10-13T15:04:31;8.32;;;3.55;;
82030;SDS011;71592;52.178;4.512;2023-10-13T15:06:59;9.02;;;3.80;;
82030;SDS011;71592;52.178;4.512;2023-10-13T15:09:28;9.32;;;4.00;;
82030;SDS011;71592;52.178;4.512;2023-10-13T15:11:54;10.48;;;3.80;;
82030;SDS011;71592;52.178;4.512;2023-10-13T15:14:20;14.50;;;5.82;;
82030;SDS011;71592;52.178;4.512;2023-10-13T15:16:45;11.02;;;5.43;;
82030;SDS011;71592;52.178;4.512;2023-10-13T15:19:11;13.85;;;5.35;;
82030;SDS011;71592;52.178;4.512;2023-10-13T15:21:37;15.73;;;7.32;;
82030;SDS011;71592;52.178;4.512;2023-10-13T15:24:05;15.88;;;6.45;;
82030;SDS011;71592;52.178;4.512;2023-10-13T15:26:40;14.43;;;6.55;;
82030;SDS011;71592;52.178;4.512;2023-10-13T15:29:17;17.23;;;7.85;;
82030;SDS011;71592;52.178;4.512;2023-10-13T15:31:46;19.65;;;7.57;;
82030;SDS011;71592;52.178;4.512;2023-10-13T15:34:31;21.40;;;7.32;;
82030;SDS011;71592;52.178;4.512;2023-10-13T15:37:02;18.83;;;8.00;;
82030;SDS011;71592;52.178;4.512;2023-10-13T15:39:33;20.30;;;8.32;;
82030;SDS011;71592;52.178;4.512;2023-10-13T15:41:58;15.55;;;7.18;;
82030;SDS011;71592;52.178;4.512;2023-10-13T15:44:24;16.60;;;6.88;;
82030;SDS011;71592;52.178;4.512;2023-10-13T15:46:54;13.35;;;7.05;;